Time;durP1;ratioP1;P1;durP2;ratioP2;P2;SDS_P1;SDS_P2;PMS_P1;PMS_P2;Temp;Humidity;BMP_temperature;BMP_pressure;BME280_temperature;BME280_humidity;BME280_pressure;Samples;Min_cycle;Max_cycle;Signal;HPM_P1;HPM_P2
2023/09/26 00:01:48;;;;;;;14.13;7.10;;;;;;;;;;5092105;28;20089;-62
2023/09/26 00:04:14;;;;;;;8.98;6.40;;;;;;;;;;5091864;28;20050;-62
2023/09/26 00:06:40;;;;;;;8.45;5.85;;;;;;;;;;5090731;28;20423;-61
2023/09/26 00:09:05;;;;;;;11.50;6.18;;;;;;;;;;5091868;28;20120;-63
2023/09/26 00:11:33;;;;;;;16.00;6.60;;;;;;;;;;5094330;28;20050;-62
2023/09/26 00:13:59;;;;;;;9.25;6.40;;;;;;;;;;5111866;28;20114;-62
2023/09/26 00:16:24;;;;;;;11.00;7.15;;;;;;;;;;5111241;28;20115;-62
2023/09/26 00:18:50;;;;;;;13.40;7.05;;;;;;;;;;5110861;28;20032;-61
2023/09/26 00:21:15;;;;;;;8.25;6.18;;;;;;;;;;5110661;28;20047;-61
2023/09/26 00:23:41;;;;;;;10.88;6.40;;;;;;;;;;5112085;28;20114;-62
2023/09/26 00:26:07;;;;;;;10.80;6.70;;;;;;;;;;5111891;28;20074;-61
2023/09/26 00:28:36;;;;;;;10.55;6.18;;;;;;;;;;5112050;28;20031;-61
2023/09/26 00:31:04;;;;;;;14.95;6.07;;;;;;;;;;5110755;28;20515;-60
2023/09/26 00:33:30;;;;;;;11.63;6.32;;;;;;;;;;5110535;28;20045;-61
2023/09/26 00:35:56;;;;;;;11.32;7.00;;;;;;;;;;5111980;28;20031;-62
2023/09/26 00:38:22;;;;;;;8.85;6.00;;;;;;;;;;5112184;28;20123;-61
2023/09/26 00:40:47;;;;;;;9.02;5.55;;;;;;;;;;5106578;28;20064;-62
2023/09/26 00:43:22;;;;;;;10.02;6.10;;;;;;;;;;5091725;28;20047;-61
2023/09/26 00:45:55;;;;;;;8.55;5.30;;;;;;;;;;5091401;28;20101;-62
2023/09/26 00:48:21;;;;;;;9.32;5.60;;;;;;;;;;5091653;28;20039;-62
2023/09/26 00:50:47;;;;;;;9.98;6.30;;;;;;;;;;5073234;28;20044;-63
2023/09/26 00:53:13;;;;;;;9.43;5.65;;;;;;;;;;5089988;28;20036;-62
2023/09/26 00:55:38;;;;;;;9.38;5.88;;;;;;;;;;5089821;28;20039;-62
2023/09/26 00:58:04;;;;;;;7.72;5.18;;;;;;;;;;5090287;28;20555;-62
2023/09/26 01:00:30;;;;;;;7.68;5.88;;;;;;;;;;5091047;28;20036;-64
2023/09/26 01:02:57;;;;;;;7.82;4.78;;;;;;;;;;5091082;28;20414;-63
2023/09/26 01:05:23;;;;;;;10.57;5.18;;;;;;;;;;5090057;28;20047;-64
2023/09/26 01:07:52;;;;;;;8.93;5.40;;;;;;;;;;5092951;28;20036;-63
2023/09/26 01:10:17;;;;;;;8.10;5.57;;;;;;;;;;5076801;28;20040;-63
2023/09/26 01:12:44;;;;;;;10.07;6.32;;;;;;;;;;5093846;28;20637;-62
2023/09/26 01:15:10;;;;;;;9.40;6.30;;;;;;;;;;5094903;28;20036;-64
2023/09/26 01:17:36;;;;;;;14.13;7.95;;;;;;;;;;5093718;28;20060;-62
2023/09/26 01:20:16;;;;;;;9.10;5.68;;;;;;;;;;5076805;28;20063;-64
2023/09/26 01:22:44;;;;;;;11.40;5.80;;;;;;;;;;5093809;28;20508;-62
2023/09/26 01:25:10;;;;;;;11.02;6.15;;;;;;;;;;5094941;28;20052;-62
2023/09/26 01:27:36;;;;;;;11.27;7.05;;;;;;;;;;5093573;28;20093;-62
2023/09/26 01:30:01;;;;;;;11.10;6.90;;;;;;;;;;5093575;28;20047;-62
2023/09/26 01:32:30;;;;;;;10.25;6.53;;;;;;;;;;5094890;28;20040;-62
2023/09/26 01:34:55;;;;;;;8.82;6.63;;;;;;;;;;5094707;28;20040;-63
2023/09/26 01:37:21;;;;;;;13.05;8.00;;;;;;;;;;5094730;28;20405;-62
2023/09/26 01:39:46;;;;;;;12.00;7.57;;;;;;;;;;5076198;28;20112;-61
2023/09/26 01:42:12;;;;;;;12.38;7.95;;;;;;;;;;5093299;28;20039;-62
2023/09/26 01:44:37;;;;;;;13.45;7.10;;;;;;;;;;5094634;28;20536;-60
2023/09/26 01:47:04;;;;;;;10.38;7.05;;;;;;;;;;5089315;28;20503;-62
2023/09/26 01:49:30;;;;;;;14.43;8.15;;;;;;;;;;5074029;28;20067;-63
2023/09/26 01:51:55;;;;;;;10.60;7.07;;;;;;;;;;5072769;28;20037;-62
2023/09/26 01:54:21;;;;;;;12.45;7.78;;;;;;;;;;5073132;28;20044;-62
2023/09/26 01:56:47;;;;;;;11.25;7.43;;;;;;;;;;5072667;28;20041;-62
2023/09/26 01:59:12;;;;;;;11.98;7.18;;;;;;;;;;5107642;28;20035;-61
2023/09/26 02:01:38;;;;;;;11.35;7.22;;;;;;;;;;5113181;28;20030;-62
2023/09/26 02:04:03;;;;;;;11.98;7.55;;;;;;;;;;5114335;28;20039;-61
2023/09/26 02:06:29;;;;;;;10.60;7.07;;;;;;;;;;5114195;28;20123;-61
2023/09/26 02:08:55;;;;;;;12.23;7.55;;;;;;;;;;5113313;28;20409;-61
2023/09/26 02:11:20;;;;;;;13.63;8.43;;;;;;;;;;5112235;28;20441;-62
2023/09/26 02:13:46;;;;;;;14.00;8.30;;;;;;;;;;5099537;28;20496;-63
2023/09/26 02:16:12;;;;;;;13.15;7.85;;;;;;;;;;5093909;28;20036;-62
2023/09/26 02:18:38;;;;;;;12.88;8.68;;;;;;;;;;5092544;28;20062;-61
2023/09/26 02:21:04;;;;;;;14.32;8.02;;;;;;;;;;5092386;28;20040;-62
2023/09/26 02:23:30;;;;;;;13.55;9.65;;;;;;;;;;5092657;28;20043;-62
2023/09/26 02:25:55;;;;;;;16.65;10.18;;;;;;;;;;5092247;28;20178;-63
2023/09/26 02:28:21;;;;;;;18.10;9.55;;;;;;;;;;5093940;28;20032;-62
2023/09/26 02:30:47;;;;;;;16.65;10.27;;;;;;;;;;5093756;28;20036;-63
2023/09/26 02:33:13;;;;;;;13.50;9.10;;;;;;;;;;5078038;28;20375;-62
2023/09/26 02:35:39;;;;;;;17.40;10.25;;;;;;;;;;5072195;28;20115;-64
2023/09/26 02:38:04;;;;;;;19.70;12.10;;;;;;;;;;5071773;28;20056;-62
2023/09/26 02:40:30;;;;;;;18.85;11.27;;;;;;;;;;5070907;28;20517;-62
2023/09/26 02:42:55;;;;;;;18.77;11.38;;;;;;;;;;5055313;28;20042;-61
2023/09/26 02:45:22;;;;;;;18.23;12.05;;;;;;;;;;5073121;28;20071;-64
2023/09/26 02:47:47;;;;;;;18.10;11.75;;;;;;;;;;5073268;28;20402;-63
2023/09/26 02:50:13;;;;;;;24.63;11.43;;;;;;;;;;5071861;28;20049;-62
2023/09/26 02:52:40;;;;;;;16.30;11.05;;;;;;;;;;5071309;28;20111;-62
2023/09/26 02:55:07;;;;;;;20.38;11.55;;;;;;;;;;5071020;28;20047;-62
2023/09/26 02:57:34;;;;;;;21.33;11.32;;;;;;;;;;5071408;28;20526;-62
2023/09/26 03:00:14;;;;;;;18.20;11.27;;;;;;;;;;5112011;28;20553;-61
2023/09/26 03:02:41;;;;;;;17.65;11.55;;;;;;;;;;5112123;28;20382;-62
2023/09/26 03:05:09;;;;;;;20.70;12.50;;;;;;;;;;5113336;28;20058;-61
2023/09/26 03:07:35;;;;;;;18.13;11.80;;;;;;;;;;5113443;28;20035;-62
2023/09/26 03:10:01;;;;;;;19.25;12.25;;;;;;;;;;5113265;28;20095;-62
2023/09/26 03:12:29;;;;;;;17.83;11.20;;;;;;;;;;5113132;28;20036;-62
2023/09/26 03:14:55;;;;;;;16.60;11.07;;;;;;;;;;5112905;28;20035;-63
2023/09/26 03:17:22;;;;;;;18.00;11.60;;;;;;;;;;5111882;28;20059;-63
2023/09/26 03:19:47;;;;;;;20.60;11.27;;;;;;;;;;5111932;28;20228;-63
2023/09/26 03:22:13;;;;;;;19.05;11.90;;;;;;;;;;5113078;28;20076;-62
2023/09/26 03:24:39;;;;;;;12.55;8.15;;;;;;;;;;5111709;28;20436;-63
2023/09/26 03:27:04;;;;;;;17.88;10.10;;;;;;;;;;5111608;28;20036;-62
2023/09/26 03:29:31;;;;;;;13.80;9.00;;;;;;;;;;5111564;28;20038;-63
2023/09/26 03:31:57;;;;;;;13.57;8.98;;;;;;;;;;5111140;28;20035;-62
2023/09/26 03:34:23;;;;;;;11.50;8.60;;;;;;;;;;5111665;28;20135;-62
2023/09/26 03:36:48;;;;;;;11.52;8.57;;;;;;;;;;5111228;28;20096;-63
2023/09/26 03:39:14;;;;;;;17.63;9.98;;;;;;;;;;5112209;28;20038;-63
2023/09/26 03:41:39;;;;;;;14.52;8.75;;;;;;;;;;5111244;28;20066;-62
2023/09/26 03:44:05;;;;;;;14.68;8.95;;;;;;;;;;5111407;28;20039;-63
2023/09/26 03:46:32;;;;;;;14.60;9.90;;;;;;;;;;5112451;28;20039;-63
2023/09/26 03:48:57;;;;;;;17.70;9.32;;;;;;;;;;5112347;28;20045;-64
2023/09/26 03:51:23;;;;;;;17.10;9.45;;;;;;;;;;5110977;28;20028;-62
2023/09/26 03:53:49;;;;;;;13.68;8.65;;;;;;;;;;5112452;28;20028;-63
2023/09/26 03:56:15;;;;;;;14.02;8.80;;;;;;;;;;5112246;28;20031;-63
2023/09/26 03:58:40;;;;;;;11.82;8.48;;;;;;;;;;5112312;28;20032;-63
2023/09/26 04:01:07;;;;;;;11.32;8.18;;;;;;;;;;5111245;28;20084;-62
2023/09/26 04:03:32;;;;;;;13.68;7.78;;;;;;;;;;5112038;28;20099;-62
2023/09/26 04:05:58;;;;;;;12.32;8.23;;;;;;;;;;5110768;28;20039;-63
2023/09/26 04:08:23;;;;;;;15.10;8.52;;;;;;;;;;5112011;28;20093;-63
2023/09/26 04:10:49;;;;;;;13.55;8.38;;;;;;;;;;5110709;28;20042;-66
2023/09/26 04:13:15;;;;;;;12.10;7.03;;;;;;;;;;5112351;28;20126;-62
2023/09/26 04:15:40;;;;;;;11.85;7.15;;;;;;;;;;5109844;28;20044;-62
2023/09/26 04:18:06;;;;;;;14.63;7.40;;;;;;;;;;5112290;28;20409;-64
2023/09/26 04:20:35;;;;;;;11.93;7.18;;;;;;;;;;5111871;28;20035;-64
2023/09/26 04:23:00;;;;;;;13.50;7.22;;;;;;;;;;5112160;28;20031;-64
2023/09/26 04:25:28;;;;;;;14.57;7.00;;;;;;;;;;5111725;28;20089;-62
2023/09/26 04:27:53;;;;;;;11.73;7.53;;;;;;;;;;5112047;28;20041;-63
2023/09/26 04:30:19;;;;;;;11.63;8.30;;;;;;;;;;5111870;28;20036;-65
2023/09/26 04:32:44;;;;;;;14.20;9.15;;;;;;;;;;5111996;28;20039;-62
2023/09/26 04:35:10;;;;;;;14.15;8.13;;;;;;;;;;5109902;28;20035;-64
2023/09/26 04:37:36;;;;;;;15.27;9.90;;;;;;;;;;5110821;28;20027;-64
2023/09/26 04:40:07;;;;;;;14.88;8.82;;;;;;;;;;5110935;28;20505;-64
2023/09/26 04:42:32;;;;;;;11.23;7.78;;;;;;;;;;5112804;28;20032;-64
2023/09/26 04:44:58;;;;;;;13.63;8.70;;;;;;;;;;5115932;28;20059;-63
2023/09/26 04:47:23;;;;;;;12.80;9.00;;;;;;;;;;5116033;28;20429;-64
2023/09/26 04:49:49;;;;;;;19.48;10.07;;;;;;;;;;5115959;28;20408;-65
2023/09/26 04:52:15;;;;;;;15.35;10.27;;;;;;;;;;5113681;28;20038;-64
2023/09/26 04:54:41;;;;;;;14.80;10.07;;;;;;;;;;5115900;28;20047;-66
2023/09/26 04:57:07;;;;;;;14.07;10.50;;;;;;;;;;5115659;28;20038;-64
2023/09/26 04:59:32;;;;;;;13.98;8.80;;;;;;;;;;5115534;28;20035;-65
2023/09/26 05:01:58;;;;;;;15.35;9.60;;;;;;;;;;5115628;28;20488;-65
2023/09/26 05:04:25;;;;;;;13.93;9.27;;;;;;;;;;5115519;28;20035;-64
2023/09/26 05:06:50;;;;;;;17.27;8.45;;;;;;;;;;5114008;28;20571;-62
2023/09/26 05:09:16;;;;;;;15.75;8.85;;;;;;;;;;5115423;28;20110;-64
2023/09/26 05:11:42;;;;;;;12.80;8.18;;;;;;;;;;5115447;28;20036;-64
2023/09/26 05:14:07;;;;;;;13.50;8.27;;;;;;;;;;5114889;28;20493;-64
2023/09/26 05:16:33;;;;;;;14.93;9.00;;;;;;;;;;5115448;28;20108;-62
2023/09/26 05:18:59;;;;;;;16.05;9.15;;;;;;;;;;5115327;28;20073;-65
2023/09/26 05:21:24;;;;;;;17.85;9.40;;;;;;;;;;5115311;28;20039;-63
2023/09/26 05:23:50;;;;;;;14.85;9.20;;;;;;;;;;5115255;28;20038;-67
2023/09/26 05:26:15;;;;;;;17.10;9.48;;;;;;;;;;5113413;28;20053;-62
2023/09/26 05:28:41;;;;;;;15.32;9.75;;;;;;;;;;5114287;28;20035;-63
2023/09/26 05:31:07;;;;;;;16.73;9.57;;;;;;;;;;5114991;28;20088;-63
2023/09/26 05:33:32;;;;;;;25.30;10.38;;;;;;;;;;5115056;28;20035;-64
2023/09/26 05:35:58;;;;;;;13.82;9.82;;;;;;;;;;5113908;28;20109;-64
2023/09/26 05:38:25;;;;;;;14.70;9.90;;;;;;;;;;5113705;28;20043;-63
2023/09/26 05:40:51;;;;;;;19.98;9.75;;;;;;;;;;5114506;28;20056;-63
2023/09/26 05:43:17;;;;;;;15.38;10.35;;;;;;;;;;5112999;28;20248;-63
2023/09/26 05:45:43;;;;;;;18.70;10.73;;;;;;;;;;5114475;28;20047;-64
2023/09/26 05:48:09;;;;;;;21.35;11.30;;;;;;;;;;5113044;28;20036;-64
2023/09/26 05:50:34;;;;;;;28.85;13.20;;;;;;;;;;5114598;28;20039;-62
2023/09/26 05:53:00;;;;;;;22.67;11.70;;;;;;;;;;5083855;28;20058;-62
2023/09/26 05:55:26;;;;;;;18.05;11.57;;;;;;;;;;5073942;28;20029;-64
2023/09/26 05:57:52;;;;;;;22.45;12.07;;;;;;;;;;5077019;28;20494;-64
2023/09/26 06:00:18;;;;;;;22.73;11.95;;;;;;;;;;5114477;27;20049;-63
2023/09/26 06:02:44;;;;;;;21.95;11.90;;;;;;;;;;5091995;28;20081;-61
2023/09/26 06:05:13;;;;;;;20.17;12.82;;;;;;;;;;5091972;28;20527;-65
2023/09/26 06:07:39;;;;;;;21.38;12.45;;;;;;;;;;5093581;28;20047;-61
2023/09/26 06:10:05;;;;;;;28.42;13.43;;;;;;;;;;5093461;28;20043;-62
2023/09/26 06:12:31;;;;;;;23.38;13.27;;;;;;;;;;5093668;28;20536;-61
2023/09/26 06:14:56;;;;;;;27.38;15.77;;;;;;;;;;5093556;28;20055;-63
2023/09/26 06:17:22;;;;;;;32.92;15.50;;;;;;;;;;5093222;28;20032;-61
2023/09/26 06:19:48;;;;;;;28.25;15.38;;;;;;;;;;5093623;28;20040;-63
2023/09/26 06:22:14;;;;;;;36.70;16.50;;;;;;;;;;5093316;28;20415;-61
2023/09/26 06:24:40;;;;;;;33.42;17.90;;;;;;;;;;5092374;28;20444;-62
2023/09/26 06:27:05;;;;;;;32.72;17.75;;;;;;;;;;5093219;28;20036;-62
2023/09/26 06:29:31;;;;;;;28.63;18.40;;;;;;;;;;5093458;28;20504;-63
2023/09/26 06:31:56;;;;;;;37.42;20.67;;;;;;;;;;5093009;28;20040;-64
2023/09/26 06:34:22;;;;;;;40.63;22.08;;;;;;;;;;5093372;28;20088;-62
2023/09/26 06:36:51;;;;;;;36.08;21.58;;;;;;;;;;5092925;28;20044;-61
2023/09/26 06:39:17;;;;;;;40.88;22.25;;;;;;;;;;5092932;28;20093;-62
2023/09/26 06:41:42;;;;;;;42.38;23.45;;;;;;;;;;5092814;28;20036;-62
2023/09/26 06:44:09;;;;;;;42.72;22.70;;;;;;;;;;5093019;28;20036;-62
2023/09/26 06:46:35;;;;;;;44.65;22.70;;;;;;;;;;5091382;28;20047;-62
2023/09/26 06:49:01;;;;;;;38.47;22.60;;;;;;;;;;5093028;28;20070;-62
2023/09/26 06:51:26;;;;;;;46.42;23.02;;;;;;;;;;5091459;28;20052;-62
2023/09/26 06:53:52;;;;;;;36.13;20.85;;;;;;;;;;5092799;28;20569;-63
2023/09/26 06:56:18;;;;;;;38.97;22.55;;;;;;;;;;5091182;28;20043;-62
2023/09/26 06:58:43;;;;;;;41.63;21.27;;;;;;;;;;5091061;28;20040;-61
2023/09/26 07:01:14;;;;;;;42.80;21.42;;;;;;;;;;5090896;28;20077;-62
2023/09/26 07:03:39;;;;;;;36.10;21.05;;;;;;;;;;5092005;28;20092;-63
2023/09/26 07:06:12;;;;;;;38.20;20.00;;;;;;;;;;5091399;28;20413;-62
2023/09/26 07:08:38;;;;;;;37.40;20.50;;;;;;;;;;5090550;28;20502;-63
2023/09/26 07:11:04;;;;;;;36.15;20.25;;;;;;;;;;5092339;28;20032;-62
2023/09/26 07:13:30;;;;;;;35.08;21.73;;;;;;;;;;5092506;28;20603;-64
2023/09/26 07:16:03;;;;;;;35.45;20.05;;;;;;;;;;5092203;28;20035;-64
2023/09/26 07:18:30;;;;;;;40.30;18.83;;;;;;;;;;5086319;28;20036;-65
2023/09/26 07:20:59;;;;;;;23.42;16.17;;;;;;;;;;5070547;28;20112;-64
2023/09/26 07:23:25;;;;;;;31.15;16.63;;;;;;;;;;5071780;28;20032;-65
2023/09/26 07:25:51;;;;;;;33.08;17.02;;;;;;;;;;5070611;28;20112;-64
2023/09/26 07:28:17;;;;;;;30.50;17.75;;;;;;;;;;5070314;28;20157;-64
2023/09/26 07:30:47;;;;;;;23.55;15.15;;;;;;;;;;5071625;28;20555;-65
2023/09/26 07:33:13;;;;;;;33.42;19.13;;;;;;;;;;5071453;28;20055;-63
2023/09/26 07:35:39;;;;;;;32.22;16.83;;;;;;;;;;5070818;28;20521;-65
2023/09/26 07:38:04;;;;;;;27.35;15.93;;;;;;;;;;5071728;28;20131;-64
2023/09/26 07:40:30;;;;;;;33.45;17.55;;;;;;;;;;5071668;28;20143;-64
2023/09/26 07:42:56;;;;;;;27.85;15.95;;;;;;;;;;5071978;28;20032;-64
2023/09/26 07:45:21;;;;;;;22.88;16.40;;;;;;;;;;5071321;28;20044;-64
2023/09/26 07:47:47;;;;;;;24.33;16.45;;;;;;;;;;5071802;28;20036;-65
2023/09/26 07:50:12;;;;;;;35.28;16.55;;;;;;;;;;5071503;28;20082;-62
2023/09/26 07:52:38;;;;;;;25.02;16.15;;;;;;;;;;5071802;28;20036;-62
2023/09/26 07:55:05;;;;;;;27.20;16.98;;;;;;;;;;5071070;28;20090;-62
2023/09/26 07:57:31;;;;;;;25.50;15.48;;;;;;;;;;5071295;28;20036;-63
2023/09/26 07:59:57;;;;;;;24.98;15.13;;;;;;;;;;5072105;28;20037;-62
2023/09/26 08:02:22;;;;;;;37.70;26.60;;;;;;;;;;5071362;28;20090;-62
2023/09/26 08:04:48;;;;;;;25.23;15.52;;;;;;;;;;5070951;28;20036;-64
2023/09/26 08:07:14;;;;;;;24.10;14.52;;;;;;;;;;5069982;28;20036;-64
2023/09/26 08:09:40;;;;;;;15.15;9.90;;;;;;;;;;5069637;28;20036;-62
2023/09/26 08:12:06;;;;;;;10.15;5.25;;;;;;;;;;5071216;28;20039;-61
2023/09/26 08:14:31;;;;;;;7.20;5.15;;;;;;;;;;5071150;28;20036;-64
2023/09/26 08:16:57;;;;;;;8.80;4.32;;;;;;;;;;5071135;28;20402;-64
2023/09/26 08:19:24;;;;;;;7.75;3.90;;;;;;;;;;5053077;28;20051;-63
2023/09/26 08:21:50;;;;;;;5.75;3.78;;;;;;;;;;5071163;28;20029;-61
2023/09/26 08:24:15;;;;;;;7.43;3.35;;;;;;;;;;5070970;28;20086;-62
2023/09/26 08:26:41;;;;;;;3.97;3.00;;;;;;;;;;5071077;28;20139;-62
2023/09/26 08:29:07;;;;;;;6.15;3.42;;;;;;;;;;5070549;28;20067;-63
2023/09/26 08:31:33;;;;;;;5.72;3.72;;;;;;;;;;5070944;28;20043;-62
2023/09/26 08:33:59;;;;;;;5.80;3.30;;;;;;;;;;5070805;28;20043;-62
2023/09/26 08:36:25;;;;;;;3.80;2.75;;;;;;;;;;5071001;28;20029;-62
2023/09/26 08:38:50;;;;;;;5.10;3.05;;;;;;;;;;5070172;28;20090;-62
2023/09/26 08:41:18;;;;;;;4.20;3.00;;;;;;;;;;5069231;28;20052;-64
2023/09/26 08:43:46;;;;;;;3.63;3.22;;;;;;;;;;5069286;28;20043;-62
2023/09/26 08:46:12;;;;;;;5.85;3.65;;;;;;;;;;5070531;28;20525;-64
2023/09/26 08:48:39;;;;;;;6.13;3.40;;;;;;;;;;5070545;28;20096;-62
2023/09/26 08:51:06;;;;;;;9.68;3.92;;;;;;;;;;5052674;28;20040;-62
2023/09/26 08:53:32;;;;;;;5.88;4.00;;;;;;;;;;5070665;28;20032;-63
2023/09/26 08:55:58;;;;;;;5.20;3.63;;;;;;;;;;5070531;28;20127;-64
2023/09/26 08:58:25;;;;;;;4.72;3.80;;;;;;;;;;5073022;28;20554;-63
2023/09/26 09:00:51;;;;;;;7.00;3.70;;;;;;;;;;5070378;28;20028;-64
2023/09/26 09:03:16;;;;;;;33.05;20.35;;;;;;;;;;5070664;28;20440;-63
2023/09/26 09:05:42;;;;;;;7.60;4.78;;;;;;;;;;5068603;28;20044;-63
2023/09/26 09:08:09;;;;;;;8.65;4.00;;;;;;;;;;5069327;28;20414;-63
2023/09/26 09:10:51;;;;;;;8.48;4.32;;;;;;;;;;5068732;28;20062;-64
2023/09/26 09:13:33;;;;;;;6.32;4.03;;;;;;;;;;5069245;28;20028;-63
2023/09/26 09:16:09;;;;;;;6.03;4.00;;;;;;;;;;5052359;28;20075;-64
2023/09/26 09:18:35;;;;;;;5.95;4.50;;;;;;;;;;5070391;28;20041;-63
2023/09/26 09:21:18;;;;;;;9.25;5.32;;;;;;;;;;5068950;28;20162;-62
2023/09/26 09:23:48;;;;;;;6.03;4.60;;;;;;;;;;5070601;28;20041;-62
2023/09/26 09:26:14;;;;;;;6.65;4.72;;;;;;;;;;5070378;28;20043;-63
2023/09/26 09:28:39;;;;;;;5.32;4.03;;;;;;;;;;5071351;28;20032;-62
2023/09/26 09:31:05;;;;;;;6.13;4.05;;;;;;;;;;5073738;28;20564;-63
2023/09/26 09:33:31;;;;;;;6.75;4.38;;;;;;;;;;5074125;28;20040;-63
2023/09/26 09:35:56;;;;;;;6.50;4.00;;;;;;;;;;5074025;28;20502;-63
2023/09/26 09:38:22;;;;;;;7.10;3.83;;;;;;;;;;5074053;28;20036;-64
2023/09/26 09:40:47;;;;;;;9.27;4.38;;;;;;;;;;5073724;28;20145;-63
2023/09/26 09:43:13;;;;;;;3.85;3.10;;;;;;;;;;5073215;28;20094;-62
2023/09/26 09:45:41;;;;;;;4.35;3.40;;;;;;;;;;5073141;28;20517;-62
2023/09/26 09:48:08;;;;;;;9.75;5.28;;;;;;;;;;5071202;28;20513;-63
2023/09/26 09:50:36;;;;;;;7.85;3.58;;;;;;;;;;5074089;28;20087;-64
2023/09/26 09:53:04;;;;;;;4.65;2.63;;;;;;;;;;5072547;28;20037;-63
2023/09/26 09:55:35;;;;;;;5.18;2.90;;;;;;;;;;5073260;28;20391;-65
2023/09/26 09:58:02;;;;;;;7.13;3.42;;;;;;;;;;5076381;28;20033;-65
2023/09/26 10:00:29;;;;;;;5.80;3.42;;;;;;;;;;5092559;28;20563;-66
2023/09/26 10:02:57;;;;;;;8.15;3.65;;;;;;;;;;5074792;28;20036;-66
2023/09/26 10:05:24;;;;;;;5.85;3.58;;;;;;;;;;5073094;28;20048;-64
2023/09/26 10:07:50;;;;;;;8.00;3.75;;;;;;;;;;5073449;28;20060;-62
2023/09/26 10:10:16;;;;;;;7.30;3.67;;;;;;;;;;5072104;28;20055;-63
2023/09/26 10:12:44;;;;;;;4.75;3.45;;;;;;;;;;5073395;28;20509;-62
2023/09/26 10:15:13;;;;;;;5.15;3.78;;;;;;;;;;5073133;28;20052;-63
2023/09/26 10:17:49;;;;;;;9.27;3.90;;;;;;;;;;5073723;28;20513;-63
2023/09/26 10:20:27;;;;;;;7.43;4.00;;;;;;;;;;5037229;28;20611;-63
2023/09/26 10:23:08;;;;;;;7.38;4.75;;;;;;;;;;5073547;28;20033;-62
2023/09/26 10:25:35;;;;;;;12.68;11.57;;;;;;;;;;5081378;28;20041;-63
2023/09/26 10:28:03;;;;;;;11.38;9.30;;;;;;;;;;5071924;28;20518;-62
2023/09/26 10:30:41;;;;;;;10.10;8.10;;;;;;;;;;5071257;28;20081;-64
2023/09/26 10:33:06;;;;;;;6.55;5.55;;;;;;;;;;5073416;28;20033;-64
2023/09/26 10:35:32;;;;;;;5.43;4.75;;;;;;;;;;5072896;28;20047;-63
2023/09/26 10:38:06;;;;;;;6.50;4.88;;;;;;;;;;5055062;28;20182;-62
2023/09/26 10:40:31;;;;;;;8.70;5.00;;;;;;;;;;5072334;28;20417;-62
2023/09/26 10:42:58;;;;;;;7.97;6.63;;;;;;;;;;5071733;28;20032;-64
2023/09/26 10:45:24;;;;;;;8.38;7.30;;;;;;;;;;5071496;28;20053;-63
2023/09/26 10:47:50;;;;;;;6.75;4.47;;;;;;;;;;5054767;28;20131;-64
2023/09/26 10:50:15;;;;;;;8.70;4.53;;;;;;;;;;5072621;28;20497;-65
2023/09/26 10:52:46;;;;;;;8.32;5.18;;;;;;;;;;5071494;28;20476;-63
2023/09/26 10:55:14;;;;;;;6.05;4.00;;;;;;;;;;5072662;28;20067;-64
2023/09/26 10:57:41;;;;;;;12.45;3.80;;;;;;;;;;5071287;28;20499;-63
2023/09/26 11:00:10;;;;;;;8.38;4.00;;;;;;;;;;5072225;28;20102;-63
2023/09/26 11:02:36;;;;;;;6.50;3.50;;;;;;;;;;5072800;28;20115;-63
2023/09/26 11:05:08;;;;;;;6.57;4.00;;;;;;;;;;5071572;28;20135;-61
2023/09/26 11:07:35;;;;;;;5.07;3.42;;;;;;;;;;5072521;28;20024;-63
2023/09/26 11:10:03;;;;;;;5.68;3.25;;;;;;;;;;5072339;28;20033;-62
2023/09/26 11:12:30;;;;;;;7.68;3.40;;;;;;;;;;5071048;28;20406;-63
2023/09/26 11:14:56;;;;;;;5.00;3.03;;;;;;;;;;5072300;28;20032;-63
2023/09/26 11:17:23;;;;;;;4.95;3.35;;;;;;;;;;5072012;28;20105;-64
2023/09/26 11:19:50;;;;;;;8.70;7.45;;;;;;;;;;5070568;28;20055;-63
2023/09/26 11:22:16;;;;;;;5.90;3.55;;;;;;;;;;5072110;28;20060;-63
2023/09/26 11:24:42;;;;;;;7.00;3.45;;;;;;;;;;5073168;28;20071;-64
2023/09/26 11:27:11;;;;;;;6.45;3.40;;;;;;;;;;5092117;28;20059;-62
2023/09/26 11:29:36;;;;;;;3.87;3.47;;;;;;;;;;5091935;28;20036;-64
2023/09/26 11:32:03;;;;;;;8.40;3.70;;;;;;;;;;5092192;28;20561;-64
2023/09/26 11:34:30;;;;;;;6.53;3.60;;;;;;;;;;5091596;28;20048;-65
2023/09/26 11:36:57;;;;;;;6.93;3.00;;;;;;;;;;5092307;28;20028;-62
2023/09/26 11:39:23;;;;;;;5.82;3.42;;;;;;;;;;5090632;28;20040;-65
2023/09/26 11:42:05;;;;;;;5.57;3.33;;;;;;;;;;5092159;28;20725;-63
2023/09/26 11:44:31;;;;;;;6.15;2.90;;;;;;;;;;5091489;28;20043;-63
2023/09/26 11:46:56;;;;;;;5.72;3.55;;;;;;;;;;5091906;28;20043;-62
2023/09/26 11:49:23;;;;;;;6.10;3.40;;;;;;;;;;5076314;28;20040;-64
2023/09/26 11:51:49;;;;;;;7.35;3.40;;;;;;;;;;5071242;28;20040;-61
2023/09/26 11:54:14;;;;;;;6.82;3.50;;;;;;;;;;5071356;28;20093;-63
2023/09/26 11:56:44;;;;;;;5.07;3.40;;;;;;;;;;5071537;28;20032;-64
2023/09/26 11:59:10;;;;;;;;;;;;;;;;;;5083882;28;20512;-61
2023/09/26 12:01:35;;;;;;;5.13;3.22;;;;;;;;;;5091812;28;19912;-64
2023/09/26 12:04:06;;;;;;;4.78;3.60;;;;;;;;;;5078763;28;20036;-63
2023/09/26 12:06:33;;;;;;;4.68;3.22;;;;;;;;;;5071466;28;20052;-62
2023/09/26 12:08:59;;;;;;;6.97;3.40;;;;;;;;;;5071153;28;20043;-63
2023/09/26 12:11:25;;;;;;;6.60;3.65;;;;;;;;;;5071157;28;20520;-61
2023/09/26 12:13:51;;;;;;;6.70;3.30;;;;;;;;;;5071243;28;20045;-64
2023/09/26 12:16:16;;;;;;;3.97;3.20;;;;;;;;;;5071447;28;20560;-63
2023/09/26 12:18:42;;;;;;;5.50;3.58;;;;;;;;;;5070859;28;20405;-61
2023/09/26 12:21:08;;;;;;;4.78;3.33;;;;;;;;;;5071049;28;20035;-62
2023/09/26 12:23:33;;;;;;;10.05;3.33;;;;;;;;;;5070715;28;20071;-62
2023/09/26 12:25:59;;;;;;;7.20;3.15;;;;;;;;;;5071176;28;20045;-65
2023/09/26 12:28:25;;;;;;;6.63;3.50;;;;;;;;;;5076236;28;20078;-63
2023/09/26 12:30:51;;;;;;;4.85;3.33;;;;;;;;;;5071335;28;20028;-63
2023/09/26 12:33:17;;;;;;;4.32;3.00;;;;;;;;;;5071186;28;20066;-61
2023/09/26 12:35:43;;;;;;;5.95;3.15;;;;;;;;;;5071384;28;20403;-62
2023/09/26 12:38:08;;;;;;;7.18;3.33;;;;;;;;;;5070362;28;20025;-63
2023/09/26 12:40:34;;;;;;;9.13;3.80;;;;;;;;;;5070876;28;20151;-62
2023/09/26 12:43:00;;;;;;;4.60;3.40;;;;;;;;;;5070972;28;20031;-63
2023/09/26 12:45:26;;;;;;;5.97;3.47;;;;;;;;;;5070793;28;20084;-62
2023/09/26 12:47:52;;;;;;;5.90;3.40;;;;;;;;;;5055661;28;20044;-63
2023/09/26 12:50:18;;;;;;;7.90;3.45;;;;;;;;;;5089111;28;20047;-62
2023/09/26 12:52:44;;;;;;;5.15;3.28;;;;;;;;;;5091154;28;20459;-63
2023/09/26 12:55:10;;;;;;;6.32;3.15;;;;;;;;;;5089617;28;20119;-63
2023/09/26 12:57:37;;;;;;;5.05;3.28;;;;;;;;;;5089331;28;20028;-64
2023/09/26 13:00:07;;;;;;;6.28;3.20;;;;;;;;;;5091160;28;20529;-63
2023/09/26 13:02:33;;;;;;;6.10;3.47;;;;;;;;;;5070395;28;20059;-63
2023/09/26 13:04:58;;;;;;;6.43;3.90;;;;;;;;;;5074204;28;20037;-64
2023/09/26 13:07:24;;;;;;;6.53;3.80;;;;;;;;;;5074490;28;20041;-62
2023/09/26 13:09:50;;;;;;;5.78;3.45;;;;;;;;;;5073377;28;20075;-62
2023/09/26 13:12:16;;;;;;;11.10;4.03;;;;;;;;;;5071771;28;20082;-63
2023/09/26 13:14:42;;;;;;;7.05;3.78;;;;;;;;;;5074790;28;20068;-64
2023/09/26 13:17:12;;;;;;;8.88;3.88;;;;;;;;;;5074060;28;20489;-62
2023/09/26 13:19:38;;;;;;;;;;;;;;;;;;5073148;28;20521;-61
2023/09/26 13:22:03;;;;;;;7.90;3.83;;;;;;;;;;5074319;28;19981;-63
2023/09/26 13:24:29;;;;;;;7.32;3.65;;;;;;;;;;5074441;28;20041;-66
2023/09/26 13:26:55;;;;;;;13.05;7.53;;;;;;;;;;5072639;28;20135;-62
2023/09/26 13:29:21;;;;;;;6.68;3.92;;;;;;;;;;5074067;28;20499;-63
2023/09/26 13:31:46;;;;;;;9.40;4.45;;;;;;;;;;5074175;28;20046;-62
2023/09/26 13:34:12;;;;;;;5.30;3.75;;;;;;;;;;5073918;28;20041;-61
2023/09/26 13:36:38;;;;;;;7.50;3.78;;;;;;;;;;5086094;28;20130;-62
2023/09/26 13:39:04;;;;;;;6.55;3.60;;;;;;;;;;5089720;28;20082;-62
2023/09/26 13:41:30;;;;;;;6.15;3.63;;;;;;;;;;5092784;28;20043;-64
2023/09/26 13:43:56;;;;;;;7.53;3.80;;;;;;;;;;5094072;28;20343;-62
2023/09/26 13:46:22;;;;;;;6.78;3.60;;;;;;;;;;5090254;28;20517;-63
2023/09/26 13:48:48;;;;;;;8.70;4.32;;;;;;;;;;5092173;28;20509;-61
2023/09/26 13:51:16;;;;;;;5.93;3.60;;;;;;;;;;5094230;28;20036;-62
2023/09/26 13:53:42;;;;;;;5.53;3.65;;;;;;;;;;5093600;28;20486;-62
2023/09/26 13:56:07;;;;;;;6.40;3.67;;;;;;;;;;5092643;28;20127;-62
2023/09/26 13:58:33;;;;;;;8.38;4.13;;;;;;;;;;5101445;28;20044;-62
2023/09/26 14:00:59;;;;;;;7.60;4.22;;;;;;;;;;5114413;28;20107;-62
2023/09/26 14:03:25;;;;;;;7.35;4.53;;;;;;;;;;5095457;28;20144;-62
2023/09/26 14:05:51;;;;;;;8.43;4.18;;;;;;;;;;5073234;28;20529;-64
2023/09/26 14:08:17;;;;;;;7.72;4.38;;;;;;;;;;5073627;28;20040;-62
2023/09/26 14:10:42;;;;;;;7.65;3.55;;;;;;;;;;5073649;28;20033;-63
2023/09/26 14:13:08;;;;;;;8.75;3.97;;;;;;;;;;5071734;28;20051;-62
2023/09/26 14:15:34;;;;;;;10.50;3.92;;;;;;;;;;5084450;28;20040;-62
2023/09/26 14:17:59;;;;;;;6.78;3.45;;;;;;;;;;5093726;28;20043;-62
2023/09/26 14:20:25;;;;;;;5.80;3.80;;;;;;;;;;5093629;28;20040;-63
2023/09/26 14:22:50;;;;;;;5.93;3.85;;;;;;;;;;5093160;28;20123;-63
2023/09/26 14:25:16;;;;;;;5.03;3.72;;;;;;;;;;5093237;28;20048;-64
2023/09/26 14:27:42;;;;;;;8.30;4.13;;;;;;;;;;5091436;28;20028;-62
2023/09/26 14:30:09;;;;;;;8.10;3.85;;;;;;;;;;5091513;28;20040;-63